sensor_id;sensor_type;location;lat;lon;timestamp;P1;durP1;ratioP1;P2;durP2;ratioP2
17510;SDS011;8873;48.818;9.422;2024-02-21T00:01:47;12.80;;;4.80;;
17510;SDS011;8873;48.818;9.422;2024-02-21T00:04:16;9.52;;;4.82;;
17510;SDS011;8873;48.818;9.422;2024-02-21T00:06:44;9.48;;;4.75;;
17510;SDS011;8873;48.818;9.422;2024-02-21T00:09:12;24.23;;;5.60;;
17510;SDS011;8873;48.818;9.422;2024-02-21T00:11:40;17.17;;;5.07;;
17510;SDS011;8873;48.818;9.422;2024-02-21T00:14:07;14.50;;;5.28;;
17510;SDS011;8873;48.818;9.422;2024-02-21T00:16:35;12.40;;;5.40;;
17510;SDS011;8873;48.818;9.422;2024-02-21T00:19:03;8.95;;;4.57;;
17510;SDS011;8873;48.818;9.422;2024-02-21T00:21:33;10.20;;;5.22;;
17510;SDS011;8873;48.818;9.422;2024-02-21T00:24:00;11.65;;;5.40;;
17510;SDS011;8873;48.818;9.422;2024-02-21T00:26:28;10.85;;;5.72;;
17510;SDS011;8873;48.818;9.422;2024-02-21T00:28:55;12.85;;;4.80;;
17510;SDS011;8873;48.818;9.422;2024-02-21T00:31:23;10.00;;;4.70;;
17510;SDS011;8873;48.818;9.422;2024-02-21T00:33:51;16.05;;;5.60;;
17510;SDS011;8873;48.818;9.422;2024-02-21T00:36:18;14.13;;;4.53;;
17510;SDS011;8873;48.818;9.422;2024-02-21T00:38:47;12.95;;;5.18;;
17510;SDS011;8873;48.818;9.422;2024-02-21T00:41:15;10.43;;;4.95;;
17510;SDS011;8873;48.818;9.422;2024-02-21T00:43:43;11.20;;;4.60;;
17510;SDS011;8873;48.818;9.422;2024-02-21T00:46:11;13.07;;;5.38;;
17510;SDS011;8873;48.818;9.422;2024-02-21T00:48:39;11.00;;;5.00;;
17510;SDS011;8873;48.818;9.422;2024-02-21T00:51:07;13.60;;;4.53;;
17510;SDS011;8873;48.818;9.422;2024-02-21T00:53:34;8.80;;;4.15;;
17510;SDS011;8873;48.818;9.422;2024-02-21T00:56:06;15.75;;;4.30;;
17510;SDS011;8873;48.818;9.422;2024-02-21T00:58:33;6.78;;;4.28;;
17510;SDS011;8873;48.818;9.422;2024-02-21T01:01:02;13.93;;;4.00;;
17510;SDS011;8873;48.818;9.422;2024-02-21T01:03:32;12.27;;;5.03;;
17510;SDS011;8873;48.818;9.422;2024-02-21T01:05:59;9.88;;;4.80;;
17510;SDS011;8873;48.818;9.422;2024-02-21T01:08:28;11.73;;;5.03;;
17510;SDS011;8873;48.818;9.422;2024-02-21T01:10:55;11.80;;;4.57;;
17510;SDS011;8873;48.818;9.422;2024-02-21T01:13:25;9.90;;;4.55;;
17510;SDS011;8873;48.818;9.422;2024-02-21T01:15:52;8.80;;;3.92;;
17510;SDS011;8873;48.818;9.422;2024-02-21T01:18:21;5.45;;;3.35;;
17510;SDS011;8873;48.818;9.422;2024-02-21T01:20:48;7.80;;;3.78;;
17510;SDS011;8873;48.818;9.422;2024-02-21T01:23:16;5.32;;;3.67;;
17510;SDS011;8873;48.818;9.422;2024-02-21T01:25:44;6.25;;;3.65;;
17510;SDS011;8873;48.818;9.422;2024-02-21T01:28:11;11.32;;;4.10;;
17510;SDS011;8873;48.818;9.422;2024-02-21T01:30:41;6.43;;;3.28;;
17510;SDS011;8873;48.818;9.422;2024-02-21T01:33:10;5.22;;;2.63;;
17510;SDS011;8873;48.818;9.422;2024-02-21T01:35:38;6.82;;;3.65;;
17510;SDS011;8873;48.818;9.422;2024-02-21T01:38:05;4.30;;;2.97;;
17510;SDS011;8873;48.818;9.422;2024-02-21T01:40:33;5.85;;;2.53;;
17510;SDS011;8873;48.818;9.422;2024-02-21T01:43:01;5.10;;;3.03;;
17510;SDS011;8873;48.818;9.422;2024-02-21T01:45:28;8.30;;;2.95;;
17510;SDS011;8873;48.818;9.422;2024-02-21T01:47:57;5.47;;;3.10;;
17510;SDS011;8873;48.818;9.422;2024-02-21T01:50:25;4.18;;;2.90;;
17510;SDS011;8873;48.818;9.422;2024-02-21T01:52:53;6.40;;;2.80;;
17510;SDS011;8873;48.818;9.422;2024-02-21T01:55:22;5.40;;;3.00;;
17510;SDS011;8873;48.818;9.422;2024-02-21T01:57:50;15.93;;;4.18;;
17510;SDS011;8873;48.818;9.422;2024-02-21T02:00:19;6.22;;;2.53;;
17510;SDS011;8873;48.818;9.422;2024-02-21T02:02:47;8.20;;;3.05;;
17510;SDS011;8873;48.818;9.422;2024-02-21T02:05:16;6.00;;;3.17;;
17510;SDS011;8873;48.818;9.422;2024-02-21T02:07:45;9.38;;;3.15;;
17510;SDS011;8873;48.818;9.422;2024-02-21T02:10:12;5.13;;;3.00;;
17510;SDS011;8873;48.818;9.422;2024-02-21T02:12:40;7.68;;;2.97;;
17510;SDS011;8873;48.818;9.422;2024-02-21T02:15:08;7.15;;;2.70;;
17510;SDS011;8873;48.818;9.422;2024-02-21T02:17:36;6.15;;;3.28;;
17510;SDS011;8873;48.818;9.422;2024-02-21T02:20:03;8.98;;;3.35;;
17510;SDS011;8873;48.818;9.422;2024-02-21T02:22:33;8.70;;;3.60;;
17510;SDS011;8873;48.818;9.422;2024-02-21T02:25:04;5.80;;;2.75;;
17510;SDS011;8873;48.818;9.422;2024-02-21T02:27:32;6.45;;;2.85;;
17510;SDS011;8873;48.818;9.422;2024-02-21T02:30:00;9.73;;;3.00;;
17510;SDS011;8873;48.818;9.422;2024-02-21T02:32:27;4.75;;;3.00;;
17510;SDS011;8873;48.818;9.422;2024-02-21T02:34:55;8.57;;;2.80;;
17510;SDS011;8873;48.818;9.422;2024-02-21T02:37:23;8.85;;;2.83;;
17510;SDS011;8873;48.818;9.422;2024-02-21T02:39:50;7.07;;;3.40;;
17510;SDS011;8873;48.818;9.422;2024-02-21T02:42:19;4.68;;;3.10;;
17510;SDS011;8873;48.818;9.422;2024-02-21T02:44:47;4.95;;;2.75;;
17510;SDS011;8873;48.818;9.422;2024-02-21T02:47:18;7.47;;;2.85;;
17510;SDS011;8873;48.818;9.422;2024-02-21T02:49:46;4.65;;;3.40;;
17510;SDS011;8873;48.818;9.422;2024-02-21T02:52:17;7.45;;;2.85;;
17510;SDS011;8873;48.818;9.422;2024-02-21T02:54:45;8.68;;;3.17;;
17510;SDS011;8873;48.818;9.422;2024-02-21T02:57:20;6.47;;;2.90;;
17510;SDS011;8873;48.818;9.422;2024-02-21T02:59:47;8.40;;;2.47;;
17510;SDS011;8873;48.818;9.422;2024-02-21T03:02:15;7.38;;;3.20;;
17510;SDS011;8873;48.818;9.422;2024-02-21T03:04:43;6.70;;;2.80;;
17510;SDS011;8873;48.818;9.422;2024-02-21T03:07:11;7.95;;;3.00;;
17510;SDS011;8873;48.818;9.422;2024-02-21T03:09:40;5.50;;;2.65;;
17510;SDS011;8873;48.818;9.422;2024-02-21T03:12:09;8.27;;;2.72;;
17510;SDS011;8873;48.818;9.422;2024-02-21T03:14:37;5.55;;;3.03;;
17510;SDS011;8873;48.818;9.422;2024-02-21T03:17:06;11.43;;;2.78;;
17510;SDS011;8873;48.818;9.422;2024-02-21T03:19:35;7.65;;;2.83;;
17510;SDS011;8873;48.818;9.422;2024-02-21T03:22:04;5.53;;;3.13;;
17510;SDS011;8873;48.818;9.422;2024-02-21T03:24:32;6.28;;;2.58;;
17510;SDS011;8873;48.818;9.422;2024-02-21T03:27:00;8.25;;;3.25;;
17510;SDS011;8873;48.818;9.422;2024-02-21T03:29:30;6.32;;;2.97;;
17510;SDS011;8873;48.818;9.422;2024-02-21T03:32:00;4.82;;;2.85;;
17510;SDS011;8873;48.818;9.422;2024-02-21T03:34:27;5.45;;;2.95;;
17510;SDS011;8873;48.818;9.422;2024-02-21T03:36:55;8.68;;;3.15;;
17510;SDS011;8873;48.818;9.422;2024-02-21T03:39:23;11.75;;;3.00;;
17510;SDS011;8873;48.818;9.422;2024-02-21T03:41:51;4.97;;;2.60;;
17510;SDS011;8873;48.818;9.422;2024-02-21T03:44:20;6.07;;;2.50;;
17510;SDS011;8873;48.818;9.422;2024-02-21T03:46:48;9.00;;;2.55;;
17510;SDS011;8873;48.818;9.422;2024-02-21T03:49:17;3.38;;;2.65;;
17510;SDS011;8873;48.818;9.422;2024-02-21T03:51:44;4.38;;;2.67;;
17510;SDS011;8873;48.818;9.422;2024-02-21T03:54:12;10.80;;;3.17;;
17510;SDS011;8873;48.818;9.422;2024-02-21T03:56:39;4.97;;;2.58;;
17510;SDS011;8873;48.818;9.422;2024-02-21T03:59:07;5.55;;;3.03;;
17510;SDS011;8873;48.818;9.422;2024-02-21T04:01:35;4.45;;;2.30;;
17510;SDS011;8873;48.818;9.422;2024-02-21T04:04:02;6.30;;;3.22;;
17510;SDS011;8873;48.818;9.422;2024-02-21T04:06:32;6.30;;;2.72;;
17510;SDS011;8873;48.818;9.422;2024-02-21T04:08:59;6.22;;;2.75;;
17510;SDS011;8873;48.818;9.422;2024-02-21T04:11:30;8.65;;;3.22;;
17510;SDS011;8873;48.818;9.422;2024-02-21T04:13:58;6.10;;;2.60;;
17510;SDS011;8873;48.818;9.422;2024-02-21T04:16:27;5.78;;;3.05;;
17510;SDS011;8873;48.818;9.422;2024-02-21T04:18:55;7.47;;;2.60;;
17510;SDS011;8873;48.818;9.422;2024-02-21T04:21:23;7.00;;;2.88;;
17510;SDS011;8873;48.818;9.422;2024-02-21T04:23:53;10.70;;;2.83;;
17510;SDS011;8873;48.818;9.422;2024-02-21T04:26:20;4.57;;;3.00;;
17510;SDS011;8873;48.818;9.422;2024-02-21T04:28:50;8.18;;;2.88;;
17510;SDS011;8873;48.818;9.422;2024-02-21T04:31:17;4.93;;;3.00;;
17510;SDS011;8873;48.818;9.422;2024-02-21T04:33:45;4.47;;;2.67;;
17510;SDS011;8873;48.818;9.422;2024-02-21T04:36:15;5.07;;;2.63;;
17510;SDS011;8873;48.818;9.422;2024-02-21T04:38:43;11.77;;;2.50;;
17510;SDS011;8873;48.818;9.422;2024-02-21T04:41:12;4.35;;;2.63;;
17510;SDS011;8873;48.818;9.422;2024-02-21T04:43:42;5.38;;;3.38;;
17510;SDS011;8873;48.818;9.422;2024-02-21T04:46:10;3.90;;;2.78;;
17510;SDS011;8873;48.818;9.422;2024-02-21T04:48:38;7.15;;;3.60;;
17510;SDS011;8873;48.818;9.422;2024-02-21T04:51:07;9.25;;;3.00;;
17510;SDS011;8873;48.818;9.422;2024-02-21T04:53:34;4.90;;;2.97;;
17510;SDS011;8873;48.818;9.422;2024-02-21T04:56:02;4.10;;;2.80;;
17510;SDS011;8873;48.818;9.422;2024-02-21T04:58:31;5.60;;;2.90;;
17510;SDS011;8873;48.818;9.422;2024-02-21T05:01:00;4.00;;;2.60;;
17510;SDS011;8873;48.818;9.422;2024-02-21T05:03:28;8.95;;;3.20;;
17510;SDS011;8873;48.818;9.422;2024-02-21T05:05:55;7.40;;;3.33;;
17510;SDS011;8873;48.818;9.422;2024-02-21T05:08:23;3.05;;;2.60;;
17510;SDS011;8873;48.818;9.422;2024-02-21T05:10:51;4.53;;;2.40;;
17510;SDS011;8873;48.818;9.422;2024-02-21T05:13:18;4.22;;;2.95;;
17510;SDS011;8873;48.818;9.422;2024-02-21T05:15:47;8.02;;;3.20;;
17510;SDS011;8873;48.818;9.422;2024-02-21T05:18:15;4.20;;;2.67;;
17510;SDS011;8873;48.818;9.422;2024-02-21T05:20:43;4.15;;;2.80;;
17510;SDS011;8873;48.818;9.422;2024-02-21T05:23:11;4.30;;;3.15;;
17510;SDS011;8873;48.818;9.422;2024-02-21T05:25:38;7.05;;;2.63;;
17510;SDS011;8873;48.818;9.422;2024-02-21T05:28:06;3.90;;;3.00;;
17510;SDS011;8873;48.818;9.422;2024-02-21T05:30:34;10.00;;;3.47;;
17510;SDS011;8873;48.818;9.422;2024-02-21T05:33:05;5.85;;;2.95;;
17510;SDS011;8873;48.818;9.422;2024-02-21T05:35:33;7.38;;;3.70;;
17510;SDS011;8873;48.818;9.422;2024-02-21T05:38:03;2.97;;;2.55;;
17510;SDS011;8873;48.818;9.422;2024-02-21T05:40:33;7.32;;;3.53;;
17510;SDS011;8873;48.818;9.422;2024-02-21T05:43:00;7.88;;;3.47;;
17510;SDS011;8873;48.818;9.422;2024-02-21T05:45:28;10.75;;;3.65;;
17510;SDS011;8873;48.818;9.422;2024-02-21T05:47:56;9.45;;;3.55;;
17510;SDS011;8873;48.818;9.422;2024-02-21T05:50:26;11.07;;;3.78;;
17510;SDS011;8873;48.818;9.422;2024-02-21T05:52:54;8.10;;;4.00;;
17510;SDS011;8873;48.818;9.422;2024-02-21T05:55:22;11.82;;;5.28;;
17510;SDS011;8873;48.818;9.422;2024-02-21T05:57:53;7.05;;;4.57;;
17510;SDS011;8873;48.818;9.422;2024-02-21T06:00:20;9.32;;;5.00;;
17510;SDS011;8873;48.818;9.422;2024-02-21T06:02:48;10.38;;;4.22;;
17510;SDS011;8873;48.818;9.422;2024-02-21T06:05:18;10.05;;;4.25;;
17510;SDS011;8873;48.818;9.422;2024-02-21T06:07:47;4.40;;;3.50;;
17510;SDS011;8873;48.818;9.422;2024-02-21T06:10:15;11.23;;;4.53;;
17510;SDS011;8873;48.818;9.422;2024-02-21T06:12:43;10.25;;;3.75;;
17510;SDS011;8873;48.818;9.422;2024-02-21T06:15:10;7.05;;;4.00;;
17510;SDS011;8873;48.818;9.422;2024-02-21T06:17:38;8.35;;;3.50;;
17510;SDS011;8873;48.818;9.422;2024-02-21T06:20:06;11.05;;;4.15;;
17510;SDS011;8873;48.818;9.422;2024-02-21T06:22:34;9.07;;;4.00;;
17510;SDS011;8873;48.818;9.422;2024-02-21T06:25:07;9.35;;;3.53;;
17510;SDS011;8873;48.818;9.422;2024-02-21T06:27:34;8.10;;;4.00;;
17510;SDS011;8873;48.818;9.422;2024-02-21T06:30:02;10.35;;;4.57;;
17510;SDS011;8873;48.818;9.422;2024-02-21T06:32:32;9.68;;;3.90;;
17510;SDS011;8873;48.818;9.422;2024-02-21T06:34:59;12.95;;;4.18;;
17510;SDS011;8873;48.818;9.422;2024-02-21T06:37:28;7.60;;;3.72;;
17510;SDS011;8873;48.818;9.422;2024-02-21T06:39:56;10.05;;;4.32;;
17510;SDS011;8873;48.818;9.422;2024-02-21T06:42:25;10.68;;;4.10;;
17510;SDS011;8873;48.818;9.422;2024-02-21T06:44:53;9.02;;;4.50;;
17510;SDS011;8873;48.818;9.422;2024-02-21T06:47:22;11.05;;;4.00;;
17510;SDS011;8873;48.818;9.422;2024-02-21T06:49:50;8.95;;;4.05;;
17510;SDS011;8873;48.818;9.422;2024-02-21T06:52:18;11.55;;;4.57;;
17510;SDS011;8873;48.818;9.422;2024-02-21T06:54:47;13.50;;;4.15;;
17510;SDS011;8873;48.818;9.422;2024-02-21T06:57:15;7.93;;;4.10;;
17510;SDS011;8873;48.818;9.422;2024-02-21T06:59:46;5.78;;;3.90;;
17510;SDS011;8873;48.818;9.422;2024-02-21T07:02:26;10.48;;;4.13;;
17510;SDS011;8873;48.818;9.422;2024-02-21T07:04:54;4.75;;;3.67;;
17510;SDS011;8873;48.818;9.422;2024-02-21T07:07:22;8.32;;;4.22;;
17510;SDS011;8873;48.818;9.422;2024-02-21T07:09:50;5.95;;;3.60;;
17510;SDS011;8873;48.818;9.422;2024-02-21T07:12:19;16.13;;;5.20;;
17510;SDS011;8873;48.818;9.422;2024-02-21T07:14:48;13.40;;;5.07;;
17510;SDS011;8873;48.818;9.422;2024-02-21T07:17:16;13.75;;;4.57;;
17510;SDS011;8873;48.818;9.422;2024-02-21T07:19:51;12.02;;;4.60;;
17510;SDS011;8873;48.818;9.422;2024-02-21T07:22:18;12.57;;;5.57;;
17510;SDS011;8873;48.818;9.422;2024-02-21T07:24:48;11.45;;;4.72;;
17510;SDS011;8873;48.818;9.422;2024-02-21T07:27:16;14.60;;;5.60;;
17510;SDS011;8873;48.818;9.422;2024-02-21T07:29:43;20.63;;;7.60;;
17510;SDS011;8873;48.818;9.422;2024-02-21T07:32:15;21.23;;;6.50;;
17510;SDS011;8873;48.818;9.422;2024-02-21T07:34:42;11.10;;;5.88;;
17510;SDS011;8873;48.818;9.422;2024-02-21T07:37:15;15.50;;;5.07;;
17510;SDS011;8873;48.818;9.422;2024-02-21T07:39:43;10.35;;;4.80;;
17510;SDS011;8873;48.818;9.422;2024-02-21T07:42:11;10.00;;;5.05;;
17510;SDS011;8873;48.818;9.422;2024-02-21T07:44:38;10.27;;;5.32;;
17510;SDS011;8873;48.818;9.422;2024-02-21T07:47:06;12.20;;;5.07;;
17510;SDS011;8873;48.818;9.422;2024-02-21T07:49:42;12.88;;;5.25;;
17510;SDS011;8873;48.818;9.422;2024-02-21T07:52:11;10.20;;;5.18;;
17510;SDS011;8873;48.818;9.422;2024-02-21T07:54:40;14.13;;;5.35;;
17510;SDS011;8873;48.818;9.422;2024-02-21T07:57:07;11.73;;;5.30;;
17510;SDS011;8873;48.818;9.422;2024-02-21T07:59:35;10.07;;;5.00;;
17510;SDS011;8873;48.818;9.422;2024-02-21T08:02:03;12.48;;;5.53;;
17510;SDS011;8873;48.818;9.422;2024-02-21T08:04:33;10.88;;;5.28;;
17510;SDS011;8873;48.818;9.422;2024-02-21T08:07:03;8.63;;;4.35;;
17510;SDS011;8873;48.818;9.422;2024-02-21T08:09:31;9.70;;;4.93;;
17510;SDS011;8873;48.818;9.422;2024-02-21T08:12:02;11.02;;;4.38;;
17510;SDS011;8873;48.818;9.422;2024-02-21T08:14:30;14.25;;;4.70;;
17510;SDS011;8873;48.818;9.422;2024-02-21T08:16:58;8.80;;;4.63;;
17510;SDS011;8873;48.818;9.422;2024-02-21T08:19:26;7.30;;;4.28;;
17510;SDS011;8873;48.818;9.422;2024-02-21T08:21:54;6.15;;;4.25;;
17510;SDS011;8873;48.818;9.422;2024-02-21T08:24:23;9.23;;;4.25;;
17510;SDS011;8873;48.818;9.422;2024-02-21T08:26:51;15.23;;;4.38;;
17510;SDS011;8873;48.818;9.422;2024-02-21T08:29:18;10.30;;;4.00;;
17510;SDS011;8873;48.818;9.422;2024-02-21T08:31:46;12.85;;;5.22;;
17510;SDS011;8873;48.818;9.422;2024-02-21T08:34:14;7.88;;;4.65;;
17510;SDS011;8873;48.818;9.422;2024-02-21T08:36:42;7.15;;;4.07;;
17510;SDS011;8873;48.818;9.422;2024-02-21T08:39:12;10.32;;;3.53;;
17510;SDS011;8873;48.818;9.422;2024-02-21T08:41:44;6.20;;;3.40;;
17510;SDS011;8873;48.818;9.422;2024-02-21T08:44:22;4.72;;;3.15;;
17510;SDS011;8873;48.818;9.422;2024-02-21T08:46:52;5.55;;;3.13;;
17510;SDS011;8873;48.818;9.422;2024-02-21T08:49:20;7.88;;;2.80;;
17510;SDS011;8873;48.818;9.422;2024-02-21T08:51:48;4.80;;;2.70;;
17510;SDS011;8873;48.818;9.422;2024-02-21T08:54:16;7.85;;;2.58;;
17510;SDS011;8873;48.818;9.422;2024-02-21T08:56:45;4.47;;;2.40;;
17510;SDS011;8873;48.818;9.422;2024-02-21T08:59:13;5.60;;;2.70;;
17510;SDS011;8873;48.818;9.422;2024-02-21T09:01:41;2.83;;;2.05;;
17510;SDS011;8873;48.818;9.422;2024-02-21T09:04:10;6.63;;;2.50;;
17510;SDS011;8873;48.818;9.422;2024-02-21T09:06:37;4.28;;;2.15;;
17510;SDS011;8873;48.818;9.422;2024-02-21T09:09:08;5.78;;;2.40;;
17510;SDS011;8873;48.818;9.422;2024-02-21T09:11:38;5.65;;;2.08;;
17510;SDS011;8873;48.818;9.422;2024-02-21T09:14:09;5.15;;;2.30;;
17510;SDS011;8873;48.818;9.422;2024-02-21T09:16:36;8.35;;;2.13;;
17510;SDS011;8873;48.818;9.422;2024-02-21T09:19:04;5.30;;;2.20;;
17510;SDS011;8873;48.818;9.422;2024-02-21T09:21:52;6.45;;;2.22;;
17510;SDS011;8873;48.818;9.422;2024-02-21T09:24:20;5.85;;;2.25;;
17510;SDS011;8873;48.818;9.422;2024-02-21T09:26:48;4.93;;;2.40;;
17510;SDS011;8873;48.818;9.422;2024-02-21T09:29:19;6.13;;;1.98;;
17510;SDS011;8873;48.818;9.422;2024-02-21T09:31:52;7.28;;;2.00;;
17510;SDS011;8873;48.818;9.422;2024-02-21T09:34:20;4.57;;;2.20;;
17510;SDS011;8873;48.818;9.422;2024-02-21T09:36:52;3.33;;;1.70;;
17510;SDS011;8873;48.818;9.422;2024-02-21T09:39:25;7.32;;;1.98;;
17510;SDS011;8873;48.818;9.422;2024-02-21T09:41:53;4.88;;;2.00;;
17510;SDS011;8873;48.818;9.422;2024-02-21T09:44:28;2.30;;;1.80;;
17510;SDS011;8873;48.818;9.422;2024-02-21T09:47:02;3.53;;;2.20;;
17510;SDS011;8873;48.818;9.422;2024-02-21T09:49:34;3.78;;;2.30;;
17510;SDS011;8873;48.818;9.422;2024-02-21T09:52:05;4.30;;;1.95;;
17510;SDS011;8873;48.818;9.422;2024-02-21T09:54:39;4.28;;;2.45;;
17510;SDS011;8873;48.818;9.422;2024-02-21T09:57:11;5.10;;;2.08;;
17510;SDS011;8873;48.818;9.422;2024-02-21T09:59:40;6.82;;;2.13;;
17510;SDS011;8873;48.818;9.422;2024-02-21T10:02:10;2.63;;;1.65;;
17510;SDS011;8873;48.818;9.422;2024-02-21T10:04:39;5.55;;;2.05;;
17510;SDS011;8873;48.818;9.422;2024-02-21T10:07:07;5.82;;;2.15;;
17510;SDS011;8873;48.818;9.422;2024-02-21T10:10:04;2.08;;;1.70;;
17510;SDS011;8873;48.818;9.422;2024-02-21T10:12:33;5.30;;;2.30;;
17510;SDS011;8873;48.818;9.422;2024-02-21T10:15:05;4.05;;;1.80;;
17510;SDS011;8873;48.818;9.422;2024-02-21T10:17:33;6.28;;;2.42;;
17510;SDS011;8873;48.818;9.422;2024-02-21T10:20:06;3.53;;;2.33;;
17510;SDS011;8873;48.818;9.422;2024-02-21T10:22:37;3.92;;;2.00;;
17510;SDS011;8873;48.818;9.422;2024-02-21T10:25:06;3.40;;;1.83;;
17510;SDS011;8873;48.818;9.422;2024-02-21T10:27:34;8.27;;;1.90;;
17510;SDS011;8873;48.818;9.422;2024-02-21T10:30:02;2.90;;;1.92;;
17510;SDS011;8873;48.818;9.422;2024-02-21T10:32:31;7.53;;;2.08;;
17510;SDS011;8873;48.818;9.422;2024-02-21T10:35:03;3.85;;;2.13;;
17510;SDS011;8873;48.818;9.422;2024-02-21T10:37:32;2.67;;;2.13;;
17510;SDS011;8873;48.818;9.422;2024-02-21T10:40:03;7.57;;;2.00;;
17510;SDS011;8873;48.818;9.422;2024-02-21T10:42:31;9.20;;;2.35;;
17510;SDS011;8873;48.818;9.422;2024-02-21T10:45:02;3.47;;;1.60;;
17510;SDS011;8873;48.818;9.422;2024-02-21T10:47:33;3.17;;;1.80;;
17510;SDS011;8873;48.818;9.422;2024-02-21T10:50:02;2.72;;;1.90;;
17510;SDS011;8873;48.818;9.422;2024-02-21T10:52:32;1.98;;;1.70;;
17510;SDS011;8873;48.818;9.422;2024-02-21T10:55:08;5.97;;;1.98;;
17510;SDS011;8873;48.818;9.422;2024-02-21T10:57:37;2.78;;;1.90;;
17510;SDS011;8873;48.818;9.422;2024-02-21T11:00:05;4.32;;;1.88;;
17510;SDS011;8873;48.818;9.422;2024-02-21T11:02:38;6.53;;;2.17;;
17510;SDS011;8873;48.818;9.422;2024-02-21T11:05:08;3.42;;;1.98;;
17510;SDS011;8873;48.818;9.422;2024-02-21T11:07:36;5.47;;;2.00;;
17510;SDS011;8873;48.818;9.422;2024-02-21T11:10:04;4.38;;;2.45;;
17510;SDS011;8873;48.818;9.422;2024-02-21T11:12:34;3.97;;;1.70;;
17510;SDS011;8873;48.818;9.422;2024-02-21T11:15:06;4.82;;;1.90;;
17510;SDS011;8873;48.818;9.422;2024-02-21T11:17:34;7.22;;;2.00;;
17510;SDS011;8873;48.818;9.422;2024-02-21T11:20:16;2.60;;;1.75;;
17510;SDS011;8873;48.818;9.422;2024-02-21T11:22:45;5.25;;;1.88;;
17510;SDS011;8873;48.818;9.422;2024-02-21T11:25:20;5.13;;;2.00;;
17510;SDS011;8873;48.818;9.422;2024-02-21T11:27:48;4.05;;;1.95;;
17510;SDS011;8873;48.818;9.422;2024-02-21T11:30:20;6.43;;;3.05;;
17510;SDS011;8873;48.818;9.422;2024-02-21T11:32:58;10.57;;;2.30;;
17510;SDS011;8873;48.818;9.422;2024-02-21T11:35:27;2.25;;;1.60;;
17510;SDS011;8873;48.818;9.422;2024-02-21T11:38:07;2.83;;;2.15;;
17510;SDS011;8873;48.818;9.422;2024-02-21T11:40:44;4.38;;;1.80;;
17510;SDS011;8873;48.818;9.422;2024-02-21T11:43:14;5.55;;;1.77;;
17510;SDS011;8873;48.818;9.422;2024-02-21T11:45:42;2.95;;;2.13;;
17510;SDS011;8873;48.818;9.422;2024-02-21T11:48:10;3.83;;;1.63;;
17510;SDS011;8873;48.818;9.422;2024-02-21T11:50:39;2.05;;;1.75;;
17510;SDS011;8873;48.818;9.422;2024-02-21T11:53:06;3.42;;;1.85;;
17510;SDS011;8873;48.818;9.422;2024-02-21T11:55:36;1.48;;;1.38;;
17510;SDS011;8873;48.818;9.422;2024-02-21T11:58:04;2.40;;;1.60;;
17510;SDS011;8873;48.818;9.422;2024-02-21T12:00:31;3.45;;;1.92;;
17510;SDS011;8873;48.818;9.422;2024-02-21T12:02:59;2.22;;;2.00;;
17510;SDS011;8873;48.818;9.422;2024-02-21T12:05:28;4.00;;;1.73;;
17510;SDS011;8873;48.818;9.422;2024-02-21T12:07:59;6.30;;;2.13;;
17510;SDS011;8873;48.818;9.422;2024-02-21T12:10:27;2.75;;;1.80;;
17510;SDS011;8873;48.818;9.422;2024-02-21T12:13:04;4.22;;;1.60;;
17510;SDS011;8873;48.818;9.422;2024-02-21T12:15:32;3.67;;;1.92;;
17510;SDS011;8873;48.818;9.422;2024-02-21T12:18:03;2.50;;;1.70;;
17510;SDS011;8873;48.818;9.422;2024-02-21T12:20:32;3.97;;;1.85;;
17510;SDS011;8873;48.818;9.422;2024-02-21T12:23:01;1.88;;;1.77;;
17510;SDS011;8873;48.818;9.422;2024-02-21T12:25:31;4.47;;;1.70;;
17510;SDS011;8873;48.818;9.422;2024-02-21T12:28:00;4.88;;;1.88;;
17510;SDS011;8873;48.818;9.422;2024-02-21T12:30:29;4.97;;;1.85;;
17510;SDS011;8873;48.818;9.422;2024-02-21T12:32:59;4.35;;;1.98;;
17510;SDS011;8873;48.818;9.422;2024-02-21T12:35:31;4.13;;;2.20;;
17510;SDS011;8873;48.818;9.422;2024-02-21T12:38:02;3.50;;;1.70;;
17510;SDS011;8873;48.818;9.422;2024-02-21T12:40:29;7.03;;;1.50;;
17510;SDS011;8873;48.818;9.422;2024-02-21T12:42:59;4.45;;;2.53;;
17510;SDS011;8873;48.818;9.422;2024-02-21T12:45:29;3.00;;;1.45;;
17510;SDS011;8873;48.818;9.422;2024-02-21T12:47:57;3.03;;;1.50;;
17510;SDS011;8873;48.818;9.422;2024-02-21T12:50:25;1.90;;;1.80;;
17510;SDS011;8873;48.818;9.422;2024-02-21T12:52:53;3.28;;;1.58;;
17510;SDS011;8873;48.818;9.422;2024-02-21T12:55:22;1.60;;;1.50;;
17510;SDS011;8873;48.818;9.422;2024-02-21T12:57:50;2.22;;;2.03;;
17510;SDS011;8873;48.818;9.422;2024-02-21T13:00:17;4.63;;;1.88;;
17510;SDS011;8873;48.818;9.422;2024-02-21T13:02:47;1.63;;;1.52;;
17510;SDS011;8873;48.818;9.422;2024-02-21T13:05:15;3.15;;;1.52;;
17510;SDS011;8873;48.818;9.422;2024-02-21T13:07:44;2.50;;;1.60;;
17510;SDS011;8873;48.818;9.422;2024-02-21T13:10:12;4.18;;;2.17;;
17510;SDS011;8873;48.818;9.422;2024-02-21T13:12:42;2.75;;;1.45;;
17510;SDS011;8873;48.818;9.422;2024-02-21T13:15:11;4.22;;;1.60;;
17510;SDS011;8873;48.818;9.422;2024-02-21T13:17:38;3.30;;;2.20;;
17510;SDS011;8873;48.818;9.422;2024-02-21T13:20:09;3.13;;;1.73;;
17510;SDS011;8873;48.818;9.422;2024-02-21T13:22:39;5.10;;;1.60;;
17510;SDS011;8873;48.818;9.422;2024-02-21T13:25:07;1.60;;;1.50;;
17510;SDS011;8873;48.818;9.422;2024-02-21T13:27:43;1.83;;;1.30;;
17510;SDS011;8873;48.818;9.422;2024-02-21T13:30:11;3.90;;;1.90;;
17510;SDS011;8873;48.818;9.422;2024-02-21T13:32:39;3.80;;;1.48;;
17510;SDS011;8873;48.818;9.422;2024-02-21T13:35:09;3.45;;;1.75;;
17510;SDS011;8873;48.818;9.422;2024-02-21T13:37:38;2.50;;;1.40;;
17510;SDS011;8873;48.818;9.422;2024-02-21T13:40:07;1.73;;;1.40;;
17510;SDS011;8873;48.818;9.422;2024-02-21T13:42:36;3.08;;;1.50;;
17510;SDS011;8873;48.818;9.422;2024-02-21T13:45:06;1.83;;;1.70;;
17510;SDS011;8873;48.818;9.422;2024-02-21T13:47:36;2.50;;;1.40;;
17510;SDS011;8873;48.818;9.422;2024-02-21T13:50:05;1.92;;;1.50;;
17510;SDS011;8873;48.818;9.422;2024-02-21T13:52:37;2.28;;;1.67;;
17510;SDS011;8873;48.818;9.422;2024-02-21T13:55:05;2.03;;;1.52;;
17510;SDS011;8873;48.818;9.422;2024-02-21T13:57:39;2.25;;;1.50;;
17510;SDS011;8873;48.818;9.422;2024-02-21T14:00:08;1.50;;;1.40;;
17510;SDS011;8873;48.818;9.422;2024-02-21T14:02:37;1.73;;;1.40;;
17510;SDS011;8873;48.818;9.422;2024-02-21T14:05:05;4.57;;;1.70;;
17510;SDS011;8873;48.818;9.422;2024-02-21T14:07:33;1.38;;;1.27;;
17510;SDS011;8873;48.818;9.422;2024-02-21T14:10:01;3.85;;;1.67;;
17510;SDS011;8873;48.818;9.422;2024-02-21T14:12:30;1.55;;;1.45;;
17510;SDS011;8873;48.818;9.422;2024-02-21T14:14:58;1.60;;;1.45;;
17510;SDS011;8873;48.818;9.422;2024-02-21T14:17:27;2.28;;;1.35;;
17510;SDS011;8873;48.818;9.422;2024-02-21T14:19:55;1.88;;;1.55;;
17510;SDS011;8873;48.818;9.422;2024-02-21T14:22:22;3.00;;;1.45;;
17510;SDS011;8873;48.818;9.422;2024-02-21T14:24:50;3.08;;;1.33;;
17510;SDS011;8873;48.818;9.422;2024-02-21T14:27:18;6.15;;;2.17;;
17510;SDS011;8873;48.818;9.422;2024-02-21T14:29:45;3.67;;;1.58;;
17510;SDS011;8873;48.818;9.422;2024-02-21T14:32:13;2.13;;;1.48;;
17510;SDS011;8873;48.818;9.422;2024-02-21T14:34:42;3.13;;;1.30;;
17510;SDS011;8873;48.818;9.422;2024-02-21T14:37:10;1.70;;;1.60;;
17510;SDS011;8873;48.818;9.422;2024-02-21T14:39:38;6.25;;;1.23;;
17510;SDS011;8873;48.818;9.422;2024-02-21T14:42:06;1.55;;;1.45;;
17510;SDS011;8873;48.818;9.422;2024-02-21T14:44:36;4.82;;;2.05;;
17510;SDS011;8873;48.818;9.422;2024-02-21T14:47:03;2.25;;;1.60;;
17510;SDS011;8873;48.818;9.422;2024-02-21T14:49:31;1.55;;;1.30;;
17510;SDS011;8873;48.818;9.422;2024-02-21T14:52:00;2.45;;;1.48;;
17510;SDS011;8873;48.818;9.422;2024-02-21T14:54:29;1.95;;;1.55;;
17510;SDS011;8873;48.818;9.422;2024-02-21T14:56:56;1.55;;;1.48;;
17510;SDS011;8873;48.818;9.422;2024-02-21T14:59:24;4.82;;;1.60;;
17510;SDS011;8873;48.818;9.422;2024-02-21T15:02:00;1.60;;;1.50;;
17510;SDS011;8873;48.818;9.422;2024-02-21T15:04:27;1.60;;;1.50;;
17510;SDS011;8873;48.818;9.422;2024-02-21T15:06:55;1.75;;;1.38;;
17510;SDS011;8873;48.818;9.422;2024-02-21T15:09:24;1.70;;;1.50;;